createdAt,value
2018-11-13T00:00:39.260Z,20.70
2018-11-13T00:03:07.804Z,19.73
2018-11-13T00:05:36.411Z,20.33
2018-11-13T00:08:05.144Z,21.83
2018-11-13T00:10:33.695Z,20.37
2018-11-13T00:13:02.330Z,20.83
2018-11-13T00:15:30.891Z,20.77
2018-11-13T00:17:59.453Z,18.57
2018-11-13T00:20:28.110Z,19.60
2018-11-13T00:22:56.698Z,20.13
2018-11-13T00:25:25.656Z,18.43
2018-11-13T00:27:54.829Z,18.37
2018-11-13T00:30:24.511Z,18.20
2018-11-13T00:32:53.792Z,18.97
2018-11-13T00:35:22.848Z,17.10
2018-11-13T00:37:51.715Z,19.03
2018-11-13T00:40:20.343Z,18.07
2018-11-13T00:42:49.383Z,18.93
2018-11-13T00:45:18.470Z,19.33
2018-11-13T00:47:47.012Z,17.57
2018-11-13T00:50:19.765Z,18.57
2018-11-13T00:52:48.544Z,18.60
2018-11-13T00:55:17.087Z,22.47
2018-11-13T00:57:45.891Z,20.57
2018-11-13T01:00:16.221Z,19.90
2018-11-13T01:02:44.997Z,19.90
2018-11-13T01:05:15.915Z,18.17
2018-11-13T01:07:45.470Z,20.37
2018-11-13T01:10:14.805Z,20.53
2018-11-13T01:12:44.289Z,20.87
2018-11-13T01:15:14.180Z,17.87
2018-11-13T01:17:43.454Z,18.63
2018-11-13T01:20:12.138Z,18.63
2018-11-13T01:22:41.050Z,18.30
2018-11-13T01:25:10.892Z,16.97
2018-11-13T01:27:39.943Z,16.43
2018-11-13T01:30:09.792Z,17.17
2018-11-13T01:32:39.153Z,16.37
2018-11-13T01:35:09.737Z,17.60
2018-11-13T01:37:38.303Z,18.43
2018-11-13T01:40:09.596Z,19.43
2018-11-13T01:42:38.196Z,19.13
2018-11-13T01:45:07.837Z,19.60
2018-11-13T01:47:36.407Z,18.27
2018-11-13T01:50:05.239Z,18.87
2018-11-13T01:52:34.488Z,17.53
2018-11-13T01:55:02.759Z,17.10
2018-11-13T01:57:31.308Z,16.90
2018-11-13T01:59:59.846Z,16.87
2018-11-13T02:02:28.882Z,15.80
2018-11-13T02:04:57.433Z,17.40
2018-11-13T02:07:25.993Z,15.63
2018-11-13T02:09:54.527Z,16.20
2018-11-13T02:12:23.090Z,16.60
2018-11-13T02:14:51.672Z,16.63
2018-11-13T02:17:20.228Z,16.37
2018-11-13T02:19:48.791Z,15.47
2018-11-13T02:22:17.340Z,14.63
2018-11-13T02:24:45.904Z,15.77
2018-11-13T02:27:14.455Z,15.23
2018-11-13T02:29:43.613Z,15.60
2018-11-13T02:32:12.181Z,14.20
2018-11-13T02:34:40.753Z,15.80
2018-11-13T02:37:09.633Z,15.80
2018-11-13T02:39:38.151Z,15.80
2018-11-13T02:42:06.744Z,16.90
2018-11-13T02:44:35.292Z,19.20
2018-11-13T02:47:03.868Z,18.20
2018-11-13T02:49:32.392Z,17.57
2018-11-13T02:52:00.960Z,14.93
2018-11-13T02:54:29.524Z,14.83
2018-11-13T02:56:58.449Z,15.03
2018-11-13T02:59:26.975Z,13.27
2018-11-13T03:01:55.508Z,14.43
2018-11-13T03:04:24.089Z,13.87
2018-11-13T03:06:52.631Z,15.10
2018-11-13T03:09:21.184Z,14.73
2018-11-13T03:11:50.256Z,15.43
2018-11-13T03:14:18.795Z,14.90
2018-11-13T03:16:47.329Z,15.67
2018-11-13T03:19:15.881Z,15.80
2018-11-13T03:21:45.199Z,16.23
2018-11-13T03:24:13.751Z,16.23
2018-11-13T03:26:42.824Z,16.40
2018-11-13T03:29:11.368Z,15.77
2018-11-13T03:31:40.001Z,16.50
2018-11-13T03:34:08.541Z,15.20
2018-11-13T03:36:37.150Z,17.37
2018-11-13T03:39:08.720Z,16.33
2018-11-13T03:41:37.529Z,18.90
2018-11-13T03:44:06.699Z,15.93
2018-11-13T03:46:35.236Z,14.60
2018-11-13T03:49:03.818Z,14.97
2018-11-13T03:51:33.008Z,15.70
2018-11-13T03:54:01.572Z,15.93
2018-11-13T03:56:30.770Z,17.23
2018-11-13T03:58:59.416Z,18.70
2018-11-13T04:01:28.244Z,17.17
2018-11-13T04:03:57.079Z,16.47
2018-11-13T04:06:25.620Z,16.77
2018-11-13T04:08:54.145Z,17.07
2018-11-13T04:11:22.676Z,16.33
2018-11-13T04:13:51.238Z,17.53
2018-11-13T04:16:20.227Z,17.50
2018-11-13T04:18:48.780Z,17.30
2018-11-13T04:21:17.343Z,15.67
2018-11-13T04:23:46.811Z,16.20
2018-11-13T04:26:15.352Z,16.87
2018-11-13T04:28:43.891Z,16.43
2018-11-13T04:31:12.528Z,16.40
2018-11-13T04:33:41.080Z,16.80
2018-11-13T04:36:09.631Z,15.67
2018-11-13T04:38:38.181Z,16.87
2018-11-13T04:41:08.072Z,22.67
2018-11-13T04:43:36.619Z,16.97
2018-11-13T04:46:05.344Z,15.60
2018-11-13T04:48:33.906Z,15.00
2018-11-13T04:51:02.459Z,15.63
2018-11-13T04:53:31.492Z,15.83
2018-11-13T04:56:00.060Z,18.60
2018-11-13T04:58:28.616Z,17.83
2018-11-13T05:00:58.247Z,19.60
2018-11-13T05:03:26.776Z,18.30
2018-11-13T05:05:55.328Z,16.07
2018-11-13T05:08:23.906Z,19.10
2018-11-13T05:10:52.443Z,61.47
2018-11-13T05:13:20.976Z,19.80
2018-11-13T05:15:49.540Z,15.40
2018-11-13T05:18:18.104Z,17.50
2018-11-13T05:20:46.664Z,16.37
2018-11-13T05:23:15.269Z,15.00
2018-11-13T05:25:43.787Z,16.03
2018-11-13T05:28:12.340Z,16.47
2018-11-13T05:30:40.896Z,15.53
2018-11-13T05:33:09.431Z,16.50
2018-11-13T05:35:37.980Z,16.20
2018-11-13T05:38:06.572Z,14.43
2018-11-13T05:40:35.102Z,23.17
2018-11-13T05:43:03.651Z,15.83
2018-11-13T05:45:32.196Z,14.07
2018-11-13T05:48:00.752Z,16.87
2018-11-13T05:50:29.299Z,15.97
2018-11-13T05:52:57.874Z,15.83
2018-11-13T05:55:26.433Z,15.60
2018-11-13T05:57:55.043Z,16.30
2018-11-13T06:00:33.184Z,16.17
2018-11-13T06:03:02.585Z,16.90
2018-11-13T06:05:31.521Z,16.23
2018-11-13T06:08:00.072Z,16.10
2018-11-13T06:10:28.653Z,19.53
2018-11-13T06:12:57.235Z,17.20
2018-11-13T06:15:25.811Z,18.67
2018-11-13T06:17:54.347Z,18.23
2018-11-13T06:20:22.899Z,16.80
2018-11-13T06:22:51.436Z,16.57
2018-11-13T06:25:19.985Z,16.90
2018-11-13T06:27:49.285Z,16.10
2018-11-13T06:30:20.156Z,16.73
2018-11-13T06:32:49.176Z,15.83
2018-11-13T06:35:17.804Z,17.40
2018-11-13T06:37:46.323Z,16.30
2018-11-13T06:40:14.911Z,16.10
2018-11-13T06:42:43.506Z,16.87
2018-11-13T06:45:16.911Z,16.90
2018-11-13T06:47:46.125Z,16.53
2018-11-13T06:50:14.744Z,15.93
2018-11-13T06:52:44.028Z,17.40
2018-11-13T06:55:42.726Z,16.90
2018-11-13T06:58:11.256Z,17.90
2018-11-13T07:00:39.836Z,17.83
2018-11-13T07:03:08.544Z,18.47
2018-11-13T07:05:37.100Z,18.63
2018-11-13T07:08:05.700Z,18.70
2018-11-13T07:10:34.269Z,19.90
2018-11-13T07:13:02.856Z,19.30
2018-11-13T07:15:32.037Z,19.57
2018-11-13T07:18:02.760Z,20.43
2018-11-13T07:20:32.572Z,19.77
2018-11-13T07:23:01.147Z,19.37
2018-11-13T07:25:29.839Z,19.40
2018-11-13T07:27:58.299Z,17.83
2018-11-13T07:30:27.505Z,19.53
2018-11-13T07:32:56.063Z,18.97
2018-11-13T07:35:24.607Z,17.93
2018-11-13T07:37:56.500Z,19.53
2018-11-13T07:40:25.144Z,17.70
2018-11-13T07:42:53.856Z,16.80
2018-11-13T07:45:22.392Z,16.13
2018-11-13T07:47:51.386Z,18.03
2018-11-13T07:50:19.808Z,18.70
2018-11-13T07:52:48.335Z,15.47
2018-11-13T07:55:17.271Z,15.53
2018-11-13T07:57:45.901Z,15.87
2018-11-13T08:00:17.096Z,14.87
2018-11-13T08:02:47.103Z,15.63
2018-11-13T08:05:15.640Z,31.17
2018-11-13T08:07:44.191Z,16.83
2018-11-13T08:10:13.329Z,18.50
2018-11-13T08:12:41.983Z,22.03
2018-11-13T08:15:13.068Z,20.03
2018-11-13T08:17:42.111Z,19.33
2018-11-13T08:20:12.140Z,19.53
2018-11-13T08:22:41.035Z,15.97
2018-11-13T08:25:10.137Z,15.23
2018-11-13T08:27:39.767Z,16.33
2018-11-13T08:30:10.000Z,17.03
2018-11-13T08:32:38.556Z,19.73
2018-11-13T08:35:07.486Z,15.97
2018-11-13T08:37:36.023Z,22.63
2018-11-13T08:40:05.203Z,21.70
2018-11-13T08:42:33.761Z,19.60
2018-11-13T08:45:02.332Z,17.67
2018-11-13T08:47:30.893Z,15.60
2018-11-13T08:49:59.436Z,9.30
2018-11-13T08:52:28.028Z,10.10
2018-11-13T08:54:56.671Z,8.93
2018-11-13T08:57:25.219Z,9.27
2018-11-13T08:59:53.773Z,9.43
2018-11-13T09:02:22.335Z,8.60
2018-11-13T09:04:50.932Z,8.67
2018-11-13T09:07:19.476Z,8.83
2018-11-13T09:09:48.037Z,8.23
2018-11-13T09:12:16.693Z,9.73
2018-11-13T09:14:45.192Z,8.13
2018-11-13T09:17:13.764Z,7.63
2018-11-13T09:19:42.430Z,8.00
2018-11-13T09:22:10.891Z,8.80
2018-11-13T09:24:39.573Z,8.40
2018-11-13T09:27:08.142Z,7.77
2018-11-13T09:29:36.714Z,7.83
2018-11-13T09:32:05.364Z,7.73
2018-11-13T09:34:33.912Z,7.80
2018-11-13T09:37:02.572Z,7.30
2018-11-13T09:39:31.120Z,7.57
2018-11-13T09:41:59.661Z,8.00
2018-11-13T09:44:28.200Z,8.37
2018-11-13T09:46:56.739Z,8.90
2018-11-13T09:49:25.307Z,9.00
2018-11-13T09:51:53.844Z,8.47
2018-11-13T09:54:22.396Z,8.70
2018-11-13T09:56:50.968Z,9.00
2018-11-13T09:59:19.652Z,8.20
2018-11-13T10:01:48.924Z,7.90
2018-11-13T10:04:17.325Z,9.33
2018-11-13T10:06:45.423Z,7.07
2018-11-13T10:09:14.355Z,8.33
2018-11-13T10:11:43.896Z,7.37
2018-11-13T10:14:12.952Z,9.07
2018-11-13T10:16:41.925Z,7.93
2018-11-13T10:19:11.244Z,7.87
2018-11-13T10:21:39.783Z,9.13
2018-11-13T10:24:09.057Z,8.40
2018-11-13T10:26:37.576Z,6.30
2018-11-13T10:29:06.257Z,5.57
2018-11-13T10:31:34.812Z,5.90
2018-11-13T10:34:03.406Z,6.07
2018-11-13T10:36:31.955Z,6.50
2018-11-13T10:39:00.503Z,7.23
2018-11-13T10:41:29.146Z,8.40
2018-11-13T10:43:57.680Z,7.30
2018-11-13T10:46:26.259Z,6.13
2018-11-13T10:48:54.825Z,6.57
2018-11-13T10:51:23.324Z,5.80
2018-11-13T10:53:51.876Z,5.30
2018-11-13T10:56:20.454Z,5.97
2018-11-13T10:58:49.029Z,7.17
2018-11-13T11:01:22.807Z,5.80
2018-11-13T11:03:59.320Z,6.67
2018-11-13T11:06:28.351Z,5.47
2018-11-13T11:08:56.956Z,6.77
2018-11-13T11:11:25.556Z,13.40
2018-11-13T11:13:54.219Z,6.00
2018-11-13T11:16:22.680Z,5.90
2018-11-13T11:18:51.466Z,4.77
2018-11-13T11:21:19.959Z,5.20
2018-11-13T11:23:48.543Z,5.73
2018-11-13T11:26:17.146Z,4.80
2018-11-13T11:28:45.656Z,4.50
2018-11-13T11:31:14.231Z,4.43
2018-11-13T11:33:42.780Z,4.77
2018-11-13T11:36:11.321Z,3.60
2018-11-13T11:38:39.937Z,3.83
2018-11-13T11:41:08.424Z,3.87
2018-11-13T11:43:36.975Z,3.27
2018-11-13T11:46:05.580Z,3.77
2018-11-13T11:48:34.110Z,2.70
2018-11-13T11:51:02.655Z,3.90
2018-11-13T11:53:31.209Z,4.90
2018-11-13T11:55:59.783Z,2.90
2018-11-13T11:58:28.364Z,2.57
2018-11-13T12:00:56.900Z,2.87
2018-11-13T12:03:25.441Z,6.43
2018-11-13T12:05:54.032Z,5.70
2018-11-13T12:08:22.604Z,6.93
2018-11-13T12:10:51.185Z,2.87
2018-11-13T12:13:19.869Z,2.90
2018-11-13T12:15:48.416Z,2.17
2018-11-13T12:18:17.001Z,3.03
2018-11-13T12:20:45.545Z,3.70
2018-11-13T12:23:14.100Z,2.77
2018-11-13T12:25:42.848Z,3.27
2018-11-13T12:28:11.325Z,3.43
2018-11-13T12:30:39.883Z,3.27
2018-11-13T12:33:08.416Z,3.93
2018-11-13T12:35:36.940Z,4.17
2018-11-13T12:38:05.621Z,3.60
2018-11-13T12:40:34.161Z,4.13
2018-11-13T12:43:02.716Z,3.80
2018-11-13T12:45:31.305Z,3.27
2018-11-13T12:47:59.856Z,3.57
2018-11-13T12:50:33.860Z,3.37
2018-11-13T12:53:02.480Z,4.00
2018-11-13T12:55:31.094Z,2.73
2018-11-13T12:57:59.593Z,3.23
2018-11-13T13:00:34.605Z,3.10
2018-11-13T13:03:03.156Z,3.20
2018-11-13T13:05:31.739Z,3.43
2018-11-13T13:08:00.325Z,2.80
2018-11-13T13:10:28.840Z,2.50
2018-11-13T13:12:57.420Z,2.83
2018-11-13T13:15:25.998Z,2.87
2018-11-13T13:17:54.601Z,2.80
2018-11-13T13:20:24.529Z,2.77
2018-11-13T13:22:53.256Z,2.60
2018-11-13T13:25:22.866Z,2.93
2018-11-13T13:27:51.425Z,2.50
2018-11-13T13:30:22.168Z,2.50
2018-11-13T13:32:50.904Z,2.47
2018-11-13T13:35:52.767Z,3.23
2018-11-13T13:38:21.288Z,1.87
2018-11-13T13:40:51.110Z,2.10
2018-11-13T13:43:20.040Z,2.03
2018-11-13T13:45:49.092Z,2.20
2018-11-13T13:48:17.936Z,2.43
2018-11-13T13:50:46.536Z,3.03
2018-11-13T13:53:16.077Z,2.90
2018-11-13T13:55:44.811Z,2.40
2018-11-13T13:58:14.080Z,2.83
2018-11-13T14:00:42.676Z,2.50
2018-11-13T14:03:12.019Z,2.77
2018-11-13T14:05:41.028Z,2.20
2018-11-13T14:08:10.396Z,2.07
2018-11-13T14:10:38.973Z,2.00
2018-11-13T14:13:07.624Z,2.10
2018-11-13T14:15:36.364Z,3.00
2018-11-13T14:18:04.803Z,3.70
2018-11-13T14:20:34.215Z,2.60
2018-11-13T14:23:02.817Z,2.50
2018-11-13T14:25:31.428Z,2.80
2018-11-13T14:28:00.082Z,3.20
2018-11-13T14:30:30.469Z,2.60
2018-11-13T14:33:00.412Z,2.67
2018-11-13T14:35:29.049Z,2.43
2018-11-13T14:37:57.860Z,3.30
2018-11-13T14:40:28.712Z,8.10
2018-11-13T14:42:57.436Z,6.63
2018-11-13T14:45:26.626Z,4.13
2018-11-13T14:47:55.220Z,3.60
2018-11-13T14:50:25.105Z,6.90
2018-11-13T14:52:54.036Z,3.50
2018-11-13T14:55:24.719Z,3.20
2018-11-13T14:57:53.768Z,3.10
2018-11-13T15:00:29.380Z,2.67
2018-11-13T15:02:58.711Z,3.00
2018-11-13T15:05:27.896Z,2.67
2018-11-13T15:07:58.784Z,3.10
2018-11-13T15:10:34.690Z,3.13
2018-11-13T15:13:03.308Z,2.73
2018-11-13T15:15:31.887Z,3.13
2018-11-13T15:18:00.464Z,3.73
2018-11-13T15:20:29.072Z,3.30
2018-11-13T15:22:57.604Z,2.80
2018-11-13T15:25:26.218Z,4.40
2018-11-13T15:27:54.757Z,4.50
2018-11-13T15:30:24.833Z,3.70
2018-11-13T15:32:56.600Z,3.30
2018-11-13T15:35:25.132Z,3.03
2018-11-13T15:37:53.735Z,3.73
2018-11-13T15:40:24.545Z,3.60
2018-11-13T15:42:53.099Z,3.83
2018-11-13T15:45:21.952Z,4.10
2018-11-13T15:47:51.248Z,5.30
2018-11-13T15:50:21.111Z,5.27
2018-11-13T15:52:49.696Z,5.13
2018-11-13T15:55:18.477Z,6.37
2018-11-13T15:57:47.481Z,7.57
2018-11-13T16:00:21.392Z,10.47
2018-11-13T16:02:50.024Z,6.47
2018-11-13T16:05:26.464Z,5.07
2018-11-13T16:07:56.264Z,5.37
2018-11-13T16:10:24.925Z,5.97
2018-11-13T16:12:53.573Z,5.60
2018-11-13T16:15:23.018Z,5.70
2018-11-13T16:17:52.351Z,5.40
2018-11-13T16:20:21.072Z,6.03
2018-11-13T16:22:49.624Z,5.83
2018-11-13T16:25:18.228Z,6.73
2018-11-13T16:27:46.792Z,6.07
2018-11-13T16:30:18.814Z,7.20
2018-11-13T16:32:47.920Z,5.83
2018-11-13T16:35:17.441Z,6.40
2018-11-13T16:37:46.676Z,6.67
2018-11-13T16:40:17.548Z,6.73
2018-11-13T16:42:46.075Z,6.70
2018-11-13T16:45:15.788Z,6.97
2018-11-13T16:47:44.540Z,7.37
2018-11-13T16:50:19.444Z,7.27
2018-11-13T16:52:48.084Z,7.27
2018-11-13T16:55:22.081Z,7.93
2018-11-13T16:57:51.379Z,7.47
2018-11-13T17:00:20.387Z,7.60
2018-11-13T17:02:48.982Z,9.47
2018-11-13T17:05:18.466Z,7.67
2018-11-13T17:07:47.124Z,7.83
2018-11-13T17:10:19.036Z,8.90
2018-11-13T17:12:47.902Z,8.77
2018-11-13T17:15:19.039Z,7.97
2018-11-13T17:17:48.515Z,7.77
2018-11-13T17:20:17.322Z,8.27
2018-11-13T17:22:46.441Z,8.07
2018-11-13T17:25:16.283Z,8.33
2018-11-13T17:27:45.864Z,7.70
2018-11-13T17:30:16.905Z,8.30
2018-11-13T17:32:46.067Z,8.53
2018-11-13T17:35:15.905Z,8.03
2018-11-13T17:40:21.208Z,7.07
2018-11-13T17:42:50.789Z,11.57
2018-11-13T17:45:21.722Z,11.33
2018-11-13T17:47:50.384Z,16.47
2018-11-13T17:50:21.536Z,8.83
2018-11-13T17:52:50.461Z,10.73
2018-11-13T17:55:19.557Z,9.40
2018-11-13T17:57:49.280Z,10.33
2018-11-13T18:00:25.381Z,10.87
2018-11-13T18:02:54.049Z,10.23
2018-11-13T18:05:23.652Z,11.53
2018-11-13T18:07:52.668Z,14.30
2018-11-13T18:10:21.445Z,13.77
2018-11-13T18:12:51.037Z,11.67
2018-11-13T18:15:21.702Z,10.70
2018-11-13T18:17:50.469Z,9.77
2018-11-13T18:20:20.318Z,9.37
2018-11-13T18:22:48.892Z,9.23
2018-11-13T18:25:17.546Z,8.83
2018-11-13T18:27:50.124Z,9.43
2018-11-13T18:30:26.857Z,9.90
2018-11-13T18:32:55.976Z,9.97
2018-11-13T18:35:29.703Z,10.03
2018-11-13T18:37:59.093Z,9.17
2018-11-13T18:40:27.833Z,13.83
2018-11-13T18:42:57.682Z,10.80
2018-11-13T18:45:33.980Z,9.60
2018-11-13T18:48:02.573Z,10.77
2018-11-13T18:50:33.537Z,10.17
2018-11-13T18:53:02.174Z,9.77
2018-11-13T18:55:30.844Z,11.13
2018-11-13T18:58:00.141Z,10.53
2018-11-13T19:00:30.762Z,9.87
2018-11-13T19:03:00.036Z,9.83
2018-11-13T19:05:28.810Z,10.80
2018-11-13T19:07:57.537Z,10.50
2018-11-13T19:10:31.553Z,9.90
2018-11-13T19:13:01.291Z,10.23
2018-11-13T19:15:30.899Z,10.20
2018-11-13T19:17:59.579Z,11.97
2018-11-13T19:20:28.160Z,12.67
2018-11-13T19:22:56.745Z,10.50
2018-11-13T19:25:26.663Z,10.53
2018-11-13T19:27:55.939Z,11.60
2018-11-13T19:30:24.579Z,12.03
2018-11-13T19:32:53.183Z,11.93
2018-11-13T19:35:22.078Z,12.07
2018-11-13T19:37:50.640Z,11.83
2018-11-13T19:40:21.564Z,12.47
2018-11-13T19:42:50.781Z,10.50
2018-11-13T19:45:19.879Z,11.53
2018-11-13T19:47:48.363Z,12.43
2018-11-13T19:50:19.304Z,14.00
2018-11-13T19:52:47.878Z,14.77
2018-11-13T19:55:17.022Z,14.43
2018-11-13T19:57:45.956Z,13.43
2018-11-13T20:00:22.016Z,22.30
2018-11-13T20:02:51.432Z,16.13
2018-11-13T20:05:20.051Z,12.80
2018-11-13T20:07:48.691Z,14.70
2018-11-13T20:10:18.588Z,14.93
2018-11-13T20:12:48.057Z,15.13
2018-11-13T20:15:16.841Z,14.43
2018-11-13T20:17:45.475Z,15.07
2018-11-13T20:20:19.592Z,15.90
2018-11-13T20:22:48.571Z,16.57
2018-11-13T20:25:18.568Z,20.33
2018-11-13T20:27:47.243Z,23.70
2018-11-13T20:30:17.882Z,21.77
2018-11-13T20:32:46.476Z,24.53
2018-11-13T20:35:15.102Z,20.87
2018-11-13T20:37:45.703Z,23.47
2018-11-13T20:40:15.712Z,36.73
2018-11-13T20:42:45.252Z,24.97
2018-11-13T20:45:13.828Z,21.47
2018-11-13T20:47:42.393Z,18.00
2018-11-13T20:50:12.776Z,18.20
2018-11-13T20:52:41.309Z,16.93
2018-11-13T20:55:10.384Z,17.63
2018-11-13T20:57:39.256Z,18.43
2018-11-13T21:00:10.520Z,13.33
2018-11-13T21:02:39.187Z,14.67
2018-11-13T21:05:07.724Z,14.03
2018-11-13T21:07:36.537Z,15.43
2018-11-13T21:10:08.863Z,15.53
2018-11-13T21:12:37.486Z,16.23
2018-11-13T21:15:07.980Z,16.17
2018-11-13T21:17:36.513Z,14.97
2018-11-13T21:20:06.428Z,13.87
2018-11-13T21:22:34.953Z,13.80
2018-11-13T21:25:03.624Z,14.30
2018-11-13T21:27:32.732Z,15.90
2018-11-13T21:30:01.331Z,14.37
2018-11-13T21:32:29.888Z,15.03
2018-11-13T21:34:58.436Z,18.10
2018-11-13T21:37:27.357Z,14.57
2018-11-13T21:39:55.900Z,13.53
2018-11-13T21:42:24.586Z,14.77
2018-11-13T21:44:53.140Z,15.73
2018-11-13T21:47:23.231Z,19.20
2018-11-13T21:49:52.005Z,16.03
2018-11-13T21:52:21.185Z,16.40
2018-11-13T21:54:49.812Z,15.33
2018-11-13T21:57:18.434Z,16.13
2018-11-13T21:59:47.022Z,17.20
2018-11-13T22:02:15.560Z,16.50
2018-11-13T22:04:45.344Z,24.07
2018-11-13T22:07:13.922Z,25.50
2018-11-13T22:09:42.612Z,24.10
2018-11-13T22:12:11.246Z,19.77
2018-11-13T22:14:39.782Z,17.10
2018-11-13T22:17:08.336Z,17.87
2018-11-13T22:19:36.893Z,15.67
2018-11-13T22:22:05.503Z,17.97
2018-11-13T22:24:34.088Z,18.20
2018-11-13T22:27:02.743Z,19.97
2018-11-13T22:29:31.225Z,19.03
2018-11-13T22:31:59.784Z,21.33
2018-11-13T22:34:28.324Z,22.80
2018-11-13T22:36:56.887Z,23.23
2018-11-13T22:39:25.421Z,18.30
2018-11-13T22:41:54.123Z,17.97
2018-11-13T22:44:22.702Z,16.10
2018-11-13T22:46:51.217Z,16.27
2018-11-13T22:49:19.741Z,16.57
2018-11-13T22:51:48.321Z,16.80
2018-11-13T22:54:16.877Z,16.50
2018-11-13T22:56:45.436Z,17.27
2018-11-13T22:59:13.984Z,16.07
2018-11-13T23:01:42.516Z,18.37
2018-11-13T23:04:11.176Z,17.97
2018-11-13T23:06:39.729Z,17.87
2018-11-13T23:09:10.524Z,18.70
2018-11-13T23:11:39.058Z,20.53
2018-11-13T23:14:07.642Z,21.53
2018-11-13T23:16:36.397Z,22.70
2018-11-13T23:19:05.195Z,23.20
2018-11-13T23:21:33.775Z,19.20
2018-11-13T23:24:02.351Z,24.73
2018-11-13T23:26:30.934Z,20.93
2018-11-13T23:28:59.437Z,15.13
2018-11-13T23:31:27.994Z,15.50
2018-11-13T23:33:56.576Z,15.57
2018-11-13T23:36:25.108Z,16.60
2018-11-13T23:38:53.649Z,19.80
2018-11-13T23:41:22.185Z,17.60
2018-11-13T23:43:50.733Z,16.70
2018-11-13T23:46:19.304Z,18.13
2018-11-13T23:48:47.824Z,17.33
2018-11-13T23:51:16.371Z,16.70
2018-11-13T23:53:45.024Z,16.87
2018-11-13T23:56:13.472Z,14.17
2018-11-13T23:58:42.004Z,13.63
